Time;durP1;ratioP1;P1;durP2;ratioP2;P2;SDS_P1;SDS_P2;PMS_P1;PMS_P2;Temp;Humidity;BMP_temperature;BMP_pressure;BME280_temperature;BME280_humidity;BME280_pressure;Samples;Min_cycle;Max_cycle;Signal;HPM_P1;HPM_P2
2021/10/07 00:00:58;;;;;;;6.97;3.38;;;21.80;50.70;;;;;;5012019;28;20376;-62
2021/10/07 00:03:25;;;;;;;7.47;2.65;;;21.00;53.80;;;;;;5012681;28;20117;-60
2021/10/07 00:06:11;;;;;;;4.93;2.25;;;21.20;52.20;;;;;;5012918;28;20029;-61
2021/10/07 00:09:14;;;;;;;3.97;1.58;;;21.00;52.30;;;;;;5013018;28;20038;-59
2021/10/07 00:11:45;;;;;;;5.85;2.53;;;21.50;51.40;;;;;;5013384;28;20500;-60
2021/10/07 00:14:12;;;;;;;3.38;1.67;;;21.30;52.30;;;;;;5012540;28;20069;-60
2021/10/07 00:16:40;;;;;;;5.28;2.30;;;21.40;49.20;;;;;;5012393;28;20026;-63
2021/10/07 00:19:07;;;;;;;2.83;1.70;;;20.90;53.20;;;;;;5012690;28;20104;-66
2021/10/07 00:21:35;;;;;;;3.22;1.77;;;21.00;52.50;;;;;;5004955;28;20121;-62
2021/10/07 00:26:30;;;;;;;5.40;1.50;;;21.70;45.10;;;;;;5011013;28;20142;-61
2021/10/07 00:29:04;;;;;;;8.32;1.85;;;22.00;46.50;;;;;;5011291;28;20094;-62
2021/10/07 00:31:40;;;;;;;5.85;2.00;;;22.30;47.70;;;;;;5010617;28;20034;-61
2021/10/07 00:37:00;;;;;;;3.95;1.55;;;21.90;51.30;;;;;;5011404;28;20033;-61
2021/10/07 00:39:27;;;;;;;4.80;1.92;;;21.80;51.40;;;;;;5008521;28;20034;-63
2021/10/07 00:41:55;;;;;;;3.70;1.48;;;21.80;51.60;;;;;;5010546;28;20101;-63
2021/10/07 00:44:23;;;;;;;14.32;2.25;;;21.70;51.60;;;;;;5002603;28;20037;-69
2021/10/07 00:46:58;;;;;;;3.08;1.65;;;21.60;52.90;;;;;;5011621;28;20053;-67
2021/10/07 00:49:27;;;;;;;8.88;1.50;;;21.70;52.20;;;;;;5011481;28;20099;-63
2021/10/07 00:51:57;;;;;;;7.20;1.52;;;21.70;52.20;;;;;;4991711;28;20029;-66
2021/10/07 00:54:26;;;;;;;5.53;1.60;;;22.00;51.40;;;;;;5012785;28;20061;-66
2021/10/07 00:56:56;;;;;;;9.93;1.33;;;22.10;50.00;;;;;;5012349;28;20022;-70
2021/10/07 00:59:24;;;;;;;2.60;1.42;;;22.20;50.60;;;;;;5013122;28;20460;-67
2021/10/07 01:01:51;;;;;;;4.65;1.23;;;22.50;49.90;;;;;;5011222;28;20083;-64
2021/10/07 01:04:19;;;;;;;10.02;1.48;;;22.40;50.40;;;;;;5011766;28;20053;-62
2021/10/07 01:06:47;;;;;;;6.07;1.50;;;22.60;48.40;;;;;;5012474;28;20057;-68
2021/10/07 01:09:18;;;;;;;2.95;1.23;;;22.70;48.20;;;;;;5012005;28;20034;-65
2021/10/07 01:11:45;;;;;;;5.93;2.00;;;22.80;49.60;;;;;;5011632;28;20364;-62
2021/10/07 01:14:16;;;;;;;4.82;1.50;;;22.80;48.10;;;;;;5011601;28;20086;-66
2021/10/07 01:16:44;;;;;;;5.80;1.27;;;22.90;49.30;;;;;;5012265;28;20368;-59
2021/10/07 01:19:11;;;;;;;4.82;1.42;;;23.00;48.80;;;;;;5011932;28;20624;-64
2021/10/07 01:21:42;;;;;;;8.15;1.73;;;23.10;49.00;;;;;;5012215;28;20034;-59
2021/10/07 01:24:09;;;;;;;3.35;0.98;;;22.80;49.50;;;;;;5012028;28;20029;-64
2021/10/07 01:26:37;;;;;;;2.03;1.20;;;23.00;48.50;;;;;;5011468;28;20109;-60
2021/10/07 01:29:04;;;;;;;4.35;0.90;;;23.00;48.90;;;;;;5011295;28;20460;-66
2021/10/07 01:31:31;;;;;;;4.57;1.35;;;23.20;47.40;;;;;;5011580;28;20447;-56
2021/10/07 01:33:59;;;;;;;4.78;1.20;;;23.30;47.70;;;;;;5011384;28;20030;-59
2021/10/07 01:36:26;;;;;;;2.83;1.20;;;23.40;47.80;;;;;;5011650;28;20026;-66
2021/10/07 01:38:53;;;;;;;2.67;0.98;;;23.30;47.20;;;;;;5011176;28;20513;-62
2021/10/07 01:41:20;;;;;;;3.00;1.00;;;23.60;48.20;;;;;;5003014;28;20116;-63
2021/10/07 01:43:48;;;;;;;2.85;1.30;;;23.60;46.50;;;;;;5004569;28;20026;-63
2021/10/07 01:46:15;;;;;;;3.80;1.35;;;23.80;47.20;;;;;;5010820;28;20018;-65
2021/10/07 01:48:43;;;;;;;4.38;1.15;;;23.70;47.40;;;;;;5010576;28;20417;-64
2021/10/07 01:51:10;;;;;;;6.15;1.17;;;23.70;47.90;;;;;;5009929;28;20353;-65
2021/10/07 01:53:37;;;;;;;6.03;1.50;;;23.70;47.80;;;;;;5005806;28;20522;-64
2021/10/07 01:56:05;;;;;;;2.97;1.02;;;23.80;48.00;;;;;;5009767;28;20038;-62
2021/10/07 01:58:32;;;;;;;4.97;1.20;;;23.80;47.30;;;;;;5009833;28;20025;-63
2021/10/07 02:01:00;;;;;;;7.57;1.70;;;23.90;47.00;;;;;;5011123;28;20049;-63
2021/10/07 02:03:27;;;;;;;2.67;1.25;;;24.00;47.50;;;;;;5011006;28;20037;-62
2021/10/07 02:05:55;;;;;;;5.40;1.17;;;24.00;47.50;;;;;;5010378;28;20018;-62
2021/10/07 02:08:22;;;;;;;4.00;1.20;;;24.20;45.70;;;;;;5010807;28;20060;-63
2021/10/07 02:10:50;;;;;;;1.65;0.88;;;24.30;46.20;;;;;;4993242;28;20030;-62
2021/10/07 02:13:17;;;;;;;2.28;1.13;;;24.20;47.00;;;;;;5010193;28;20030;-63
2021/10/07 02:15:44;;;;;;;3.20;1.55;;;24.50;46.10;;;;;;5010088;28;20029;-64
2021/10/07 02:18:12;;;;;;;7.43;1.65;;;24.40;45.80;;;;;;5009508;28;20105;-64
2021/10/07 02:20:39;;;;;;;2.75;1.30;;;24.50;46.40;;;;;;5010569;28;20164;-65
2021/10/07 02:23:07;;;;;;;7.45;1.40;;;24.40;45.90;;;;;;5010916;28;20046;-62
2021/10/07 02:25:34;;;;;;;4.00;1.10;;;24.50;45.90;;;;;;5009805;28;20472;-65
2021/10/07 02:28:05;;;;;;;5.03;1.08;;;24.40;46.70;;;;;;5013213;28;20102;-60
2021/10/07 02:30:32;;;;;;;2.20;1.10;;;24.50;45.60;;;;;;5004101;28;20105;-59
2021/10/07 02:32:59;;;;;;;5.65;1.25;;;24.70;46.30;;;;;;5009422;28;20399;-60
2021/10/07 02:35:27;;;;;;;3.10;1.00;;;24.60;46.50;;;;;;5008093;28;20574;-61
2021/10/07 02:37:55;;;;;;;4.05;1.20;;;24.70;46.40;;;;;;5008531;28;20488;-63
2021/10/07 02:40:22;;;;;;;4.18;1.45;;;24.70;44.40;;;;;;5004841;28;20037;-62
2021/10/07 02:42:50;;;;;;;5.18;1.75;;;25.00;43.50;;;;;;5009302;28;20095;-63
2021/10/07 02:45:18;;;;;;;4.45;1.33;;;25.00;44.30;;;;;;5008144;28;20018;-60
2021/10/07 02:47:46;;;;;;;3.58;1.20;;;25.00;46.10;;;;;;4991537;28;20041;-64
2021/10/07 02:50:15;;;;;;;4.75;1.25;;;25.00;45.30;;;;;;5005341;28;20118;-56
2021/10/07 02:52:43;;;;;;;2.97;1.10;;;24.90;46.30;;;;;;5005691;28;20106;-59
2021/10/07 02:55:10;;;;;;;1.98;1.00;;;24.80;46.30;;;;;;5008942;28;20045;-58
2021/10/07 02:57:41;;;;;;;3.72;1.17;;;24.80;46.30;;;;;;5008741;28;20022;-56
2021/10/07 03:00:10;;;;;;;1.73;0.88;;;24.70;46.60;;;;;;5004518;28;20041;-57
2021/10/07 03:02:38;;;;;;;3.70;1.15;;;24.80;45.60;;;;;;5008737;28;20060;-59
2021/10/07 03:05:06;;;;;;;3.42;1.23;;;25.00;45.70;;;;;;5008269;28;20488;-58
2021/10/07 03:07:34;;;;;;;4.03;1.10;;;24.90;45.60;;;;;;5008818;28;20388;-58
2021/10/07 03:10:02;;;;;;;3.15;1.20;;;25.00;45.60;;;;;;5004723;28;20037;-59
2021/10/07 03:12:29;;;;;;;2.30;1.00;;;25.00;44.20;;;;;;5008227;28;20075;-61
2021/10/07 03:14:57;;;;;;;1.88;0.88;;;25.10;44.70;;;;;;5007851;28;20030;-60
2021/10/07 03:17:24;;;;;;;2.38;1.00;;;25.20;44.80;;;;;;5008336;28;20101;-60
2021/10/07 03:19:51;;;;;;;3.20;1.02;;;25.10;44.70;;;;;;5003701;28;20022;-61
2021/10/07 03:22:21;;;;;;;3.28;0.85;;;25.10;45.00;;;;;;5008165;28;20475;-61
2021/10/07 03:24:48;;;;;;;5.82;1.40;;;25.20;44.50;;;;;;5004235;28;20025;-59
2021/10/07 03:27:15;;;;;;;3.20;1.20;;;25.20;44.20;;;;;;5007748;28;20018;-60
2021/10/07 03:29:43;;;;;;;5.22;1.48;;;25.10;44.80;;;;;;5003679;28;20057;-62
2021/10/07 03:32:10;;;;;;;3.45;1.10;;;25.10;42.90;;;;;;4990874;28;20033;-58
2021/10/07 03:34:37;;;;;;;4.53;0.80;;;25.20;44.80;;;;;;5007294;28;20042;-60
2021/10/07 03:37:05;;;;;;;5.50;1.45;;;25.00;44.50;;;;;;5008450;28;20404;-61
2021/10/07 03:39:32;;;;;;;4.40;1.25;;;25.00;44.80;;;;;;5003839;28;20112;-59
2021/10/07 03:42:00;;;;;;;2.45;0.82;;;25.20;44.20;;;;;;5007804;28;20022;-61
2021/10/07 03:44:28;;;;;;;3.67;1.20;;;25.20;44.70;;;;;;5006708;28;20082;-61
2021/10/07 03:46:56;;;;;;;2.90;1.00;;;25.20;44.30;;;;;;5008298;28;20030;-60
2021/10/07 03:49:23;;;;;;;5.80;1.30;;;25.30;43.10;;;;;;4999763;28;20034;-62
2021/10/07 03:51:51;;;;;;;5.07;1.77;;;25.20;43.10;;;;;;5007960;28;20044;-61
2021/10/07 03:54:18;;;;;;;2.15;0.93;;;25.40;42.80;;;;;;5007738;28;20104;-62
2021/10/07 03:56:46;;;;;;;2.45;1.13;;;25.30;43.70;;;;;;5007542;28;20030;-61
2021/10/07 03:59:13;;;;;;;4.68;1.30;;;25.30;43.10;;;;;;5004083;28;20088;-63
2021/10/07 04:01:41;;;;;;;6.20;1.52;;;25.40;43.60;;;;;;5008192;28;20147;-61
2021/10/07 04:04:08;;;;;;;5.50;0.88;;;25.50;43.50;;;;;;5007861;28;20108;-60
2021/10/07 04:06:35;;;;;;;2.40;1.05;;;25.50;43.60;;;;;;5007542;28;20487;-62
2021/10/07 04:09:03;;;;;;;6.47;1.75;;;25.50;43.60;;;;;;5004415;28;20041;-63
2021/10/07 04:11:31;;;;;;;4.90;1.10;;;25.60;42.90;;;;;;5008703;28;20050;-61
2021/10/07 04:13:58;;;;;;;6.50;1.50;;;25.50;43.20;;;;;;5004018;28;20476;-64
2021/10/07 04:16:26;;;;;;;6.28;1.23;;;25.60;43.10;;;;;;5007541;28;20025;-60
2021/10/07 04:18:53;;;;;;;5.45;1.70;;;25.60;43.90;;;;;;5003383;28;20052;-60
2021/10/07 04:21:23;;;;;;;4.80;1.20;;;25.50;42.80;;;;;;5008009;28;20026;-61
2021/10/07 04:23:50;;;;;;;7.72;1.60;;;25.30;44.50;;;;;;5007786;28;20108;-61
2021/10/07 04:26:17;;;;;;;4.85;1.23;;;25.30;43.10;;;;;;4989541;28;20060;-60
2021/10/07 04:28:45;;;;;;;6.68;1.60;;;25.40;44.40;;;;;;5003410;28;20038;-59
2021/10/07 04:31:12;;;;;;;4.65;1.48;;;25.50;44.10;;;;;;5005200;28;20055;-60
2021/10/07 04:33:40;;;;;;;8.18;1.35;;;25.50;43.60;;;;;;5007824;28;20026;-63
2021/10/07 04:36:07;;;;;;;6.50;1.35;;;25.50;44.10;;;;;;5008391;28;20472;-66
2021/10/07 04:38:34;;;;;;;5.32;1.45;;;25.50;43.00;;;;;;5010338;28;20022;-65
2021/10/07 04:41:02;;;;;;;6.20;1.83;;;25.50;42.90;;;;;;5012026;28;20100;-60
2021/10/07 04:43:29;;;;;;;10.45;1.65;;;25.50;42.20;;;;;;5011813;28;20030;-65
2021/10/07 04:45:57;;;;;;;9.32;1.20;;;25.50;42.90;;;;;;5012099;28;20411;-64
2021/10/07 04:48:24;;;;;;;8.40;1.40;;;25.50;44.10;;;;;;4994991;28;20093;-65
2021/10/07 04:50:52;;;;;;;2.35;1.25;;;25.60;43.40;;;;;;5011936;28;20037;-64
2021/10/07 04:53:19;;;;;;;3.92;1.17;;;25.50;43.10;;;;;;5011309;28;20504;-63
2021/10/07 04:55:50;;;;;;;5.20;1.42;;;25.50;43.80;;;;;;4999986;28;20500;-61
2021/10/07 04:58:17;;;;;;;7.53;1.60;;;25.50;43.00;;;;;;5011601;28;20108;-60
2021/10/07 05:00:45;;;;;;;5.72;1.20;;;25.60;43.40;;;;;;5009088;28;20112;-62
2021/10/07 05:03:12;;;;;;;5.60;1.23;;;25.60;44.20;;;;;;4990593;28;20099;-64
2021/10/07 05:05:40;;;;;;;5.53;1.15;;;25.50;44.30;;;;;;5010696;28;20030;-62
2021/10/07 05:08:08;;;;;;;6.32;1.30;;;25.50;44.50;;;;;;5012338;28;20026;-63
2021/10/07 05:10:35;;;;;;;5.18;1.42;;;25.50;44.50;;;;;;5008693;28;20065;-63
2021/10/07 05:13:02;;;;;;;8.13;1.77;;;25.50;44.30;;;;;;5012217;28;20029;-61
2021/10/07 05:15:30;;;;;;;3.10;1.15;;;25.50;42.90;;;;;;5011315;28;20542;-64
2021/10/07 05:17:57;;;;;;;6.43;1.58;;;25.50;43.80;;;;;;5010878;28;20026;-64
2021/10/07 05:20:25;;;;;;;5.00;1.10;;;25.50;43.00;;;;;;5007485;28;20124;-65
2021/10/07 05:22:52;;;;;;;7.85;1.55;;;25.50;44.10;;;;;;5012581;28;20034;-63
2021/10/07 05:25:20;;;;;;;4.85;1.42;;;25.60;44.20;;;;;;5007186;28;20057;-62
2021/10/07 05:27:47;;;;;;;4.28;1.20;;;25.50;43.50;;;;;;5011962;28;20034;-64
2021/10/07 05:30:14;;;;;;;4.45;1.55;;;25.70;43.80;;;;;;4990936;28;20040;-63
2021/10/07 05:32:42;;;;;;;5.20;1.73;;;25.40;43.90;;;;;;5011391;28;20689;-66
2021/10/07 05:35:10;;;;;;;5.35;1.38;;;25.20;44.80;;;;;;5012071;28;20030;-64
2021/10/07 05:37:38;;;;;;;6.60;1.65;;;25.50;43.10;;;;;;5010253;28;20026;-63
2021/10/07 05:40:06;;;;;;;7.05;2.03;;;25.50;42.50;;;;;;5009331;28;20018;-61
2021/10/07 05:42:33;;;;;;;7.85;1.58;;;25.50;44.30;;;;;;5009610;28;20018;-61
2021/10/07 05:45:01;;;;;;;4.07;1.30;;;25.50;43.20;;;;;;4993858;28;20449;-65
2021/10/07 05:47:32;;;;;;;7.53;1.60;;;25.50;43.80;;;;;;5010545;28;20166;-62
2021/10/07 05:49:59;;;;;;;9.50;1.98;;;25.50;43.10;;;;;;5009828;28;20030;-62
2021/10/07 05:52:27;;;;;;;3.38;1.02;;;25.50;44.00;;;;;;5007214;28;20057;-62
2021/10/07 05:54:56;;;;;;;8.27;2.22;;;25.30;44.60;;;;;;5010265;28;20077;-63
2021/10/07 05:57:24;;;;;;;4.18;1.48;;;25.40;44.50;;;;;;5010189;28;20429;-64
2021/10/07 05:59:52;;;;;;;24.23;2.53;;;25.40;45.80;;;;;;5010064;28;20167;-61
2021/10/07 06:02:20;;;;;;;7.63;1.52;;;25.30;47.20;;;;;;5006188;28;20025;-65
2021/10/07 06:04:47;;;;;;;9.98;2.80;;;25.20;46.00;;;;;;5010573;28;20453;-68
2021/10/07 06:07:15;;;;;;;11.60;2.22;;;25.00;48.00;;;;;;5009946;28;20066;-63
2021/10/07 06:09:43;;;;;;;8.55;2.58;;;24.90;48.00;;;;;;5007004;28;20667;-61
2021/10/07 06:12:10;;;;;;;6.32;2.03;;;24.70;48.10;;;;;;5005834;28;20079;-66
2021/10/07 06:14:38;;;;;;;8.60;2.50;;;24.50;48.20;;;;;;5010884;28;20026;-62
2021/10/07 06:17:09;;;;;;;8.57;2.58;;;24.40;49.30;;;;;;5010687;28;20026;-64
2021/10/07 06:19:42;;;;;;;10.27;2.63;;;24.30;50.20;;;;;;5010697;28;20030;-63
2021/10/07 06:22:10;;;;;;;12.95;2.95;;;24.10;50.10;;;;;;5004256;28;20270;-61
2021/10/07 06:24:38;;;;;;;12.38;2.50;;;24.00;50.50;;;;;;5009962;28;20037;-67
2021/10/07 06:27:06;;;;;;;9.60;2.58;;;23.90;51.20;;;;;;5011716;28;20484;-66
2021/10/07 06:29:33;;;;;;;9.93;2.38;;;23.80;51.50;;;;;;5011100;28;20068;-61
2021/10/07 06:32:01;;;;;;;19.27;4.60;;;23.60;52.40;;;;;;4997376;28;20034;-61
2021/10/07 06:34:28;;;;;;;11.00;3.17;;;23.50;52.70;;;;;;4990800;28;20026;-63
2021/10/07 06:36:56;;;;;;;12.85;3.17;;;23.40;52.30;;;;;;4974368;28;20095;-62
2021/10/07 06:39:23;;;;;;;16.67;3.47;;;23.30;53.10;;;;;;4991134;28;20091;-59
2021/10/07 06:41:51;;;;;;;14.60;3.65;;;23.20;53.70;;;;;;4991880;28;20019;-65
2021/10/07 06:44:19;;;;;;;12.80;3.50;;;23.20;54.20;;;;;;4991386;28;20469;-61
2021/10/07 06:46:46;;;;;;;16.60;3.72;;;23.10;55.50;;;;;;4990765;28;20022;-59
2021/10/07 06:49:14;;;;;;;13.77;3.50;;;23.00;55.10;;;;;;4991965;28;20038;-61
2021/10/07 06:51:41;;;;;;;12.00;3.53;;;22.90;55.20;;;;;;4991793;28;20354;-59
2021/10/07 06:54:09;;;;;;;16.05;4.57;;;22.90;55.50;;;;;;4990759;28;20050;-64
2021/10/07 06:56:36;;;;;;;13.10;4.55;;;22.80;55.90;;;;;;4991469;28;20027;-65
2021/10/07 06:59:04;;;;;;;12.55;3.85;;;22.80;56.40;;;;;;4991505;28;20085;-60
2021/10/07 07:01:32;;;;;;;19.08;4.43;;;22.70;56.90;;;;;;4989680;28;20014;-62
2021/10/07 07:03:59;;;;;;;17.05;5.57;;;22.60;57.00;;;;;;4991101;28;20030;-64
2021/10/07 07:06:28;;;;;;;15.50;4.68;;;22.60;57.60;;;;;;4990907;28;20475;-62
2021/10/07 07:09:01;;;;;;;14.68;3.92;;;22.50;57.90;;;;;;4990842;28;20038;-59
2021/10/07 07:11:31;;;;;;;10.88;4.10;;;22.50;58.20;;;;;;4992734;28;20026;-61
2021/10/07 07:14:02;;;;;;;14.38;5.10;;;22.40;58.60;;;;;;5006004;28;20026;-54
2021/10/07 07:16:30;;;;;;;15.32;5.00;;;22.40;58.90;;;;;;5007177;28;20030;-61
2021/10/07 07:18:57;;;;;;;16.73;4.88;;;22.40;58.90;;;;;;5010511;28;20022;-62
2021/10/07 07:21:29;;;;;;;15.43;4.30;;;22.30;59.30;;;;;;5010634;28;20074;-67
2021/10/07 07:23:58;;;;;;;14.00;4.45;;;22.20;59.20;;;;;;5011019;28;20154;-62
2021/10/07 07:26:27;;;;;;;14.48;3.90;;;22.20;59.70;;;;;;5010494;28;20033;-65
2021/10/07 07:28:55;;;;;;;19.85;5.13;;;22.10;59.80;;;;;;4992727;28;20033;-66
2021/10/07 07:31:23;;;;;;;20.77;5.25;;;22.10;60.00;;;;;;4993322;28;20044;-63
2021/10/07 07:33:51;;;;;;;17.70;5.50;;;22.10;60.20;;;;;;5010755;28;20053;-61
2021/10/07 07:36:20;;;;;;;18.58;5.60;;;22.00;60.50;;;;;;5010243;28;20038;-64
2021/10/07 07:38:48;;;;;;;16.40;4.90;;;22.00;60.50;;;;;;5009965;28;20034;-60
2021/10/07 07:41:16;;;;;;;15.02;4.93;;;21.90;60.80;;;;;;5010659;28;20087;-65
2021/10/07 07:43:44;;;;;;;17.42;4.65;;;21.80;60.90;;;;;;5010675;28;20430;-60
2021/10/07 07:46:13;;;;;;;16.33;5.18;;;21.80;61.20;;;;;;5010198;28;20034;-62
2021/10/07 07:48:40;;;;;;;15.65;5.65;;;21.70;61.40;;;;;;5009588;28;20037;-66
2021/10/07 07:51:08;;;;;;;18.92;5.68;;;21.70;61.50;;;;;;5009903;28;20014;-63
2021/10/07 07:53:35;;;;;;;15.93;5.07;;;21.60;61.70;;;;;;5009832;28;20399;-63
2021/10/07 07:56:03;;;;;;;14.38;4.47;;;21.60;61.80;;;;;;5010041;28;20423;-59
2021/10/07 07:58:30;;;;;;;17.92;6.45;;;21.50;61.90;;;;;;5009089;28;20026;-59
2021/10/07 08:00:58;;;;;;;15.20;5.00;;;21.50;61.70;;;;;;5010082;28;20066;-54
2021/10/07 08:03:27;;;;;;;15.85;5.50;;;21.40;61.80;;;;;;5009246;28;20022;-61
2021/10/07 08:05:55;;;;;;;15.90;5.15;;;21.40;62.00;;;;;;4992013;28;20420;-65
2021/10/07 08:08:22;;;;;;;15.43;4.75;;;21.30;62.60;;;;;;5009441;28;20369;-67
2021/10/07 08:10:51;;;;;;;14.85;5.22;;;21.30;62.60;;;;;;5009963;28;20491;-66
2021/10/07 08:13:19;;;;;;;14.55;4.53;;;21.30;62.50;;;;;;4994743;28;20022;-68
2021/10/07 08:15:48;;;;;;;15.48;4.82;;;21.20;62.80;;;;;;5012860;28;20122;-62
2021/10/07 08:18:15;;;;;;;12.90;5.05;;;21.20;62.70;;;;;;5013341;28;20155;-60
2021/10/07 08:20:43;;;;;;;13.65;4.28;;;21.10;62.50;;;;;;5012736;28;20101;-63
2021/10/07 08:23:13;;;;;;;18.60;5.43;;;21.10;62.60;;;;;;5013245;28;20094;-59
2021/10/07 08:25:41;;;;;;;15.43;4.55;;;21.10;62.70;;;;;;5011855;28;20456;-61
2021/10/07 08:28:12;;;;;;;17.25;4.65;;;21.10;62.80;;;;;;5012709;28;20048;-63
2021/10/07 08:30:39;;;;;;;15.13;5.07;;;21.00;63.00;;;;;;5012665;28;20071;-54
2021/10/07 08:33:06;;;;;;;18.17;5.82;;;21.00;64.40;;;;;;5013241;28;20013;-57
2021/10/07 08:35:34;;;;;;;21.48;6.43;;;21.00;65.00;;;;;;5014023;28;20026;-58
2021/10/07 08:38:01;;;;;;;35.78;12.65;;;21.00;64.90;;;;;;5013067;28;20030;-58
2021/10/07 08:40:41;;;;;;;67.40;30.83;;;20.90;64.80;;;;;;5004249;28;20032;-59
2021/10/07 08:43:09;;;;;;;124.05;54.55;;;21.00;65.10;;;;;;5009236;28;20113;-60
2021/10/07 08:45:37;;;;;;;180.40;88.95;;;20.90;65.00;;;;;;5011607;28;20082;-59
2021/10/07 08:48:05;;;;;;;223.13;107.35;;;20.90;64.90;;;;;;5005858;28;20045;-64
2021/10/07 08:50:36;;;;;;;226.15;110.28;;;20.80;64.60;;;;;;5010242;28;20805;-60
2021/10/07 08:53:06;;;;;;;222.98;106.30;;;20.80;64.50;;;;;;5008595;28;20035;-59
2021/10/07 08:55:34;;;;;;;214.65;105.95;;;20.80;64.60;;;;;;5008649;28;20460;-64
2021/10/07 08:58:01;;;;;;;201.00;97.28;;;20.80;64.70;;;;;;5003933;28;20458;-62
2021/10/07 09:00:29;;;;;;;226.80;112.00;;;20.80;64.80;;;;;;5009734;28;20488;-59
2021/10/07 09:02:56;;;;;;;233.20;110.53;;;20.80;64.90;;;;;;5008360;28;20075;-59
2021/10/07 09:05:26;;;;;;;230.73;117.65;;;20.80;64.90;;;;;;5008372;28;20045;-56
2021/10/07 09:08:05;;;;;;;222.63;116.75;;;20.80;65.00;;;;;;5005708;28;20034;-64
2021/10/07 09:10:47;;;;;;;238.50;115.90;;;20.80;65.00;;;;;;4990897;28;20108;-61
2021/10/07 09:13:33;;;;;;;222.45;112.35;;;20.80;65.00;;;;;;5006162;28;20029;-61
2021/10/07 09:16:01;;;;;;;222.05;111.95;;;20.80;65.10;;;;;;4990548;28;20046;-58
2021/10/07 09:18:32;;;;;;;204.25;105.85;;;20.80;65.00;;;;;;5003783;28;20041;-62
2021/10/07 09:21:00;;;;;;;206.18;104.20;;;20.80;65.10;;;;;;5011104;28;20079;-61
2021/10/07 09:23:35;;;;;;;200.50;100.78;;;20.80;65.10;;;;;;4992260;28;20092;-63
2021/10/07 09:26:12;;;;;;;194.00;97.40;;;20.80;65.10;;;;;;5010709;28;20029;-63
2021/10/07 09:28:58;;;;;;;195.38;99.63;;;20.80;65.00;;;;;;5006228;28;20034;-63
2021/10/07 09:31:33;;;;;;;202.40;100.00;;;20.70;65.00;;;;;;5011128;28;20026;-61
2021/10/07 09:34:06;;;;;;;191.80;96.53;;;20.70;65.00;;;;;;5011114;28;20079;-63
2021/10/07 09:36:35;;;;;;;158.15;75.78;;;20.70;65.10;;;;;;5011485;28;20053;-66
2021/10/07 09:39:04;;;;;;;169.18;83.43;;;20.60;65.50;;;;;;5004555;28;20494;-57
2021/10/07 09:41:33;;;;;;;178.45;87.38;;;20.60;65.50;;;;;;5010189;28;20392;-61
2021/10/07 09:44:07;;;;;;;166.07;83.05;;;20.60;65.50;;;;;;5010789;28;20105;-62
2021/10/07 09:46:49;;;;;;;168.90;81.78;;;20.60;65.40;;;;;;5010186;28;20503;-67
2021/10/07 09:49:19;;;;;;;173.95;85.70;;;20.60;65.50;;;;;;5004782;28;20038;-63
2021/10/07 09:51:52;;;;;;;157.88;76.75;;;20.60;65.50;;;;;;5010626;28;20033;-66
2021/10/07 09:54:29;;;;;;;154.50;73.07;;;20.60;65.40;;;;;;5010357;28;20060;-66
2021/10/07 09:56:58;;;;;;;151.55;73.35;;;20.60;65.50;;;;;;5011159;28;20033;-64
2021/10/07 09:59:27;;;;;;;158.75;75.15;;;20.60;65.50;;;;;;5004907;28;20045;-64
2021/10/07 10:01:56;;;;;;;154.38;74.63;;;20.60;65.50;;;;;;5010622;28;20022;-66
2021/10/07 10:04:28;;;;;;;136.32;68.53;;;20.60;65.50;;;;;;5010320;28;20026;-66
2021/10/07 10:06:56;;;;;;;150.65;71.55;;;20.60;65.50;;;;;;5010548;28;20070;-66
2021/10/07 10:09:25;;;;;;;142.95;67.88;;;20.50;65.50;;;;;;5005068;28;20440;-63
2021/10/07 10:11:53;;;;;;;129.40;66.57;;;20.60;65.50;;;;;;5010777;28;20108;-62
2021/10/07 10:14:24;;;;;;;138.95;68.15;;;20.50;65.50;;;;;;5007294;28;20030;-67
2021/10/07 10:16:55;;;;;;;138.43;65.70;;;20.60;65.60;;;;;;5009875;28;20052;-64
2021/10/07 10:19:23;;;;;;;124.90;63.47;;;20.60;65.60;;;;;;5001188;28;20271;-63
2021/10/07 10:21:54;;;;;;;130.82;64.43;;;20.50;65.60;;;;;;5009757;28;20026;-57
2021/10/07 10:24:21;;;;;;;122.68;60.70;;;20.60;65.60;;;;;;5009351;28;20461;-56
2021/10/07 10:27:03;;;;;;;122.60;60.53;;;20.50;65.60;;;;;;5009963;28;20025;-59
2021/10/07 10:29:33;;;;;;;105.97;55.80;;;20.60;65.50;;;;;;5001507;28;20033;-61
2021/10/07 10:32:03;;;;;;;116.35;56.80;;;20.50;65.50;;;;;;5009779;28;20079;-60
2021/10/07 10:34:44;;;;;;;119.97;58.95;;;20.50;65.50;;;;;;5009325;28;20026;-63
2021/10/07 10:37:13;;;;;;;110.82;55.75;;;20.60;65.50;;;;;;5010115;28;20497;-64
2021/10/07 10:39:47;;;;;;;106.68;54.92;;;20.50;65.50;;;;;;5004520;28;20082;-62
2021/10/07 10:42:26;;;;;;;107.13;52.80;;;20.50;65.50;;;;;;5009611;28;20129;-58
2021/10/07 10:45:03;;;;;;;104.50;53.08;;;20.50;65.50;;;;;;5010484;28;20030;-57
2021/10/07 10:47:32;;;;;;;99.47;49.80;;;20.50;65.60;;;;;;4992834;28;20113;-64
2021/10/07 10:50:17;;;;;;;95.82;48.05;;;20.50;65.50;;;;;;5007131;28;20033;-59
2021/10/07 10:52:54;;;;;;;91.55;49.03;;;20.50;65.50;;;;;;5008105;28;20032;-60
2021/10/07 10:55:34;;;;;;;100.60;49.35;;;20.50;65.60;;;;;;5072739;28;20041;-58
2021/10/07 10:58:11;;;;;;;97.75;48.35;;;20.50;65.50;;;;;;5068037;28;20029;-60
2021/10/07 11:00:43;;;;;;;89.97;46.42;;;20.50;65.50;;;;;;5069176;28;20025;-63
2021/10/07 11:03:10;;;;;;;90.82;48.10;;;20.50;65.60;;;;;;5071005;28;20024;-66
2021/10/07 11:05:54;;;;;;;96.55;48.03;;;20.50;65.70;;;;;;5073008;28;20079;-63
2021/10/07 11:08:33;;;;;;;89.30;43.95;;;20.50;65.70;;;;;;5067940;28;20030;-62
2021/10/07 11:14:07;;;;;;;86.15;43.25;;;20.50;65.70;;;;;;5038729;28;20367;-65
2021/10/07 11:16:37;;;;;;;85.80;43.35;;;20.40;65.60;;;;;;5055346;28;20036;-63
2021/10/07 11:19:09;;;;;;;82.72;41.53;;;20.40;65.60;;;;;;5067439;28;20032;-63
2021/10/07 11:21:37;;;;;;;85.80;41.25;;;20.40;65.70;;;;;;5072129;28;20107;-62
2021/10/07 11:24:15;;;;;;;80.05;40.40;;;20.40;65.70;;;;;;5072099;28;20021;-66
2021/10/07 11:26:43;;;;;;;72.35;37.67;;;20.40;65.60;;;;;;5071637;28;20445;-63
2021/10/07 11:29:10;;;;;;;76.35;38.10;;;20.40;65.60;;;;;;5062589;28;20039;-61
2021/10/07 11:31:45;;;;;;;69.22;35.97;;;20.40;65.60;;;;;;5071593;28;20078;-61
2021/10/07 11:34:12;;;;;;;70.70;36.38;;;20.40;65.60;;;;;;5071251;28;20077;-63
2021/10/07 11:36:40;;;;;;;73.28;37.42;;;20.40;65.70;;;;;;5071557;28;20031;-64
2021/10/07 11:39:07;;;;;;;74.38;36.78;;;20.40;65.70;;;;;;5066052;28;20081;-64
2021/10/07 11:41:35;;;;;;;67.80;38.72;;;20.40;65.70;;;;;;5071515;28;20024;-61
2021/10/07 11:44:06;;;;;;;69.45;35.80;;;20.40;65.70;;;;;;5071272;28;20360;-65
2021/10/07 11:46:38;;;;;;;76.90;36.40;;;20.40;65.70;;;;;;5072484;28;20028;-61
2021/10/07 11:49:07;;;;;;;74.63;35.63;;;20.40;65.50;;;;;;5071309;28;20055;-57
2021/10/07 11:51:35;;;;;;;67.78;34.53;;;20.40;65.70;;;;;;5075526;28;20029;-61
2021/10/07 11:54:04;;;;;;;68.05;33.50;;;20.40;65.60;;;;;;5044472;28;20050;-63
2021/10/07 11:56:34;;;;;;;65.43;33.75;;;20.40;65.50;;;;;;5013362;28;20128;-64
2021/10/07 11:59:04;;;;;;;71.30;33.67;;;20.40;65.40;;;;;;5012730;28;20030;-62
2021/10/07 12:01:36;;;;;;;61.28;31.67;;;20.40;65.40;;;;;;5013612;28;20032;-60
2021/10/07 12:04:05;;;;;;;68.85;33.55;;;20.40;65.40;;;;;;5013314;28;20036;-63
2021/10/07 12:06:37;;;;;;;61.00;31.15;;;20.40;65.40;;;;;;5013503;28;20120;-66
2021/10/07 12:09:09;;;;;;;57.55;30.42;;;20.40;65.40;;;;;;5013859;28;20038;-67
2021/10/07 12:11:37;;;;;;;58.72;30.88;;;20.40;65.50;;;;;;5013045;28;20026;-66
2021/10/07 12:14:05;;;;;;;57.95;28.90;;;20.40;65.50;;;;;;4998506;28;20038;-55
2021/10/07 12:16:37;;;;;;;58.90;28.48;;;20.30;65.30;;;;;;4993248;28;20065;-62
2021/10/07 12:19:06;;;;;;;60.03;29.23;;;20.30;65.40;;;;;;4993281;28;20065;-63
2021/10/07 12:21:36;;;;;;;58.80;29.08;;;20.30;66.10;;;;;;4993214;28;20026;-65
2021/10/07 12:24:13;;;;;;;53.85;26.63;;;20.30;65.40;;;;;;4993159;28;20031;-55
2021/10/07 12:26:47;;;;;;;53.80;27.55;;;20.30;65.40;;;;;;4993553;28;20029;-65
2021/10/07 12:29:28;;;;;;;55.10;28.60;;;20.30;65.40;;;;;;4975473;28;20037;-64
2021/10/07 12:32:00;;;;;;;53.92;26.98;;;20.30;65.30;;;;;;4993261;28;20919;-61
2021/10/07 12:34:33;;;;;;;54.45;27.98;;;20.20;65.40;;;;;;4993049;28;20412;-63
2021/10/07 12:37:03;;;;;;;59.97;27.00;;;20.20;65.50;;;;;;4992213;28;20026;-66
2021/10/07 12:39:36;;;;;;;56.83;27.65;;;20.20;65.50;;;;;;4990973;28;20485;-64
2021/10/07 12:42:25;;;;;;;56.13;25.40;;;20.20;65.60;;;;;;4992712;28;20365;-60
2021/10/07 12:44:56;;;;;;;44.97;22.48;;;20.20;65.80;;;;;;4993468;28;20030;-61
2021/10/07 12:47:35;;;;;;;47.80;23.50;;;20.20;65.50;;;;;;4993380;28;20030;-65
2021/10/07 12:50:15;;;;;;;42.00;21.55;;;20.20;65.60;;;;;;4992752;28;20372;-64
2021/10/07 12:52:54;;;;;;;45.55;21.38;;;20.20;65.70;;;;;;4993213;28;20027;-66
2021/10/07 12:55:23;;;;;;;39.75;21.42;;;20.20;65.70;;;;;;4993254;28;20046;-65